Time;durP1;ratioP1;P1;durP2;ratioP2;P2;SDS_P1;SDS_P2;PMS_P1;PMS_P2;Temp;Humidity;BMP_temperature;BMP_pressure;BME280_temperature;BME280_humidity;BME280_pressure;Samples;Min_cycle;Max_cycle;Signal;HPM_P1;HPM_P2
2022/09/27 00:00:45;;;;;;;0.93;0.32;;;22.80;47.50;;;;;;6157122;28;20052;-59
2022/09/27 00:03:47;;;;;;;1.08;0.30;;;22.60;47.40;;;;;;6138355;28;20160;-59
2022/09/27 00:06:48;;;;;;;0.68;0.30;;;22.80;47.50;;;;;;6159445;28;20057;-59
2022/09/27 00:09:50;;;;;;;;;;;22.70;47.30;;;;;;6161918;28;20085;-59
2022/09/27 00:12:51;;;;;;;0.30;0.20;;;22.80;47.50;;;;;;6159963;28;19969;-60
2022/09/27 00:15:56;;;;;;;1.27;0.30;;;22.70;47.40;;;;;;6144851;28;20046;-59
2022/09/27 00:18:59;;;;;;;0.40;0.28;;;22.50;47.20;;;;;;6157638;28;20906;-59
2022/09/27 00:22:01;;;;;;;0.43;0.30;;;22.50;47.20;;;;;;6160743;28;20131;-59
2022/09/27 00:25:06;;;;;;;0.88;0.22;;;22.40;47.10;;;;;;6159898;28;20042;-60
2022/09/27 00:28:08;;;;;;;1.08;0.45;;;22.70;47.30;;;;;;6159651;28;20042;-60
2022/09/27 00:31:18;;;;;;;0.43;0.30;;;22.80;47.30;;;;;;6158088;28;20042;-60
2022/09/27 00:34:23;;;;;;;1.55;0.60;;;22.60;47.10;;;;;;6158051;28;20042;-59
2022/09/27 00:37:24;;;;;;;0.50;0.40;;;22.80;47.20;;;;;;6159174;28;20131;-60
2022/09/27 00:40:26;;;;;;;1.25;0.30;;;22.50;47.10;;;;;;6156329;28;20081;-59
2022/09/27 00:43:43;;;;;;;1.30;0.63;;;22.80;47.20;;;;;;6157272;28;20061;-58
2022/09/27 00:46:53;;;;;;;0.90;0.20;;;22.70;47.00;;;;;;6137896;28;20093;-58
2022/09/27 00:50:00;;;;;;;1.23;0.13;;;22.90;47.10;;;;;;6161882;28;20080;-58
2022/09/27 00:53:10;;;;;;;0.47;0.20;;;22.60;46.90;;;;;;6162961;28;20945;-57
2022/09/27 00:56:16;;;;;;;0.35;0.20;;;22.90;47.10;;;;;;6162691;28;20045;-56
2022/09/27 00:59:22;;;;;;;0.70;0.20;;;23.30;47.40;;;;;;6166245;28;20057;-59
2022/09/27 01:02:24;;;;;;;0.47;0.20;;;22.60;46.90;;;;;;6153369;28;20060;-58
2022/09/27 01:05:28;;;;;;;0.73;0.30;;;22.80;47.00;;;;;;6150439;28;20081;-52
2022/09/27 01:08:29;;;;;;;1.48;0.30;;;23.00;47.10;;;;;;6155294;28;20427;-55
2022/09/27 01:11:41;;;;;;;0.65;0.32;;;22.30;46.70;;;;;;6156025;28;20049;-55
2022/09/27 01:14:57;;;;;;;0.65;0.30;;;22.50;46.80;;;;;;6135932;28;20591;-58
2022/09/27 01:18:12;;;;;;;0.63;0.20;;;22.40;46.70;;;;;;6157197;28;20330;-56
2022/09/27 01:21:35;;;;;;;0.47;0.20;;;22.70;46.90;;;;;;6138148;28;20652;-54
2022/09/27 01:25:00;;;;;;;0.85;0.70;;;22.50;46.80;;;;;;6153414;28;20064;-58
2022/09/27 01:28:19;;;;;;;0.43;0.20;;;22.90;47.00;;;;;;6154284;28;20077;-58
2022/09/27 01:31:30;;;;;;;0.52;0.32;;;22.60;46.90;;;;;;6140628;28;20874;-56
2022/09/27 01:34:39;;;;;;;0.47;0.22;;;22.40;46.80;;;;;;6154066;28;20715;-58
2022/09/27 01:37:50;;;;;;;0.35;0.08;;;22.80;46.90;;;;;;6140333;28;20625;-56
2022/09/27 01:41:01;;;;;;;0.50;0.17;;;22.90;46.90;;;;;;6154887;28;20163;-57
2022/09/27 01:44:28;;;;;;;0.60;0.20;;;22.70;46.90;;;;;;6154625;28;20089;-58
2022/09/27 01:47:43;;;;;;;0.55;0.30;;;22.60;46.80;;;;;;6154632;28;20567;-55
2022/09/27 01:51:06;;;;;;;0.10;0.10;;;22.60;47.40;;;;;;6155187;28;20049;-57
2022/09/27 01:54:11;;;;;;;0.40;0.38;;;22.30;46.70;;;;;;6142898;28;20544;-58
2022/09/27 01:57:36;;;;;;;0.55;0.30;;;22.80;47.00;;;;;;6156700;28;20055;-54
2022/09/27 02:00:44;;;;;;;0.50;0.15;;;22.20;46.60;;;;;;6156122;28;20465;-56
2022/09/27 02:03:49;;;;;;;0.43;0.20;;;22.50;46.80;;;;;;6151320;28;21649;-58
2022/09/27 02:07:17;;;;;;;0.38;0.20;;;22.80;47.00;;;;;;6148527;28;20046;-55
2022/09/27 02:10:24;;;;;;;0.70;0.20;;;22.20;47.30;;;;;;6137581;28;20125;-56
2022/09/27 02:13:37;;;;;;;0.30;0.20;;;22.30;46.70;;;;;;6141024;28;20407;-59
2022/09/27 02:17:04;;;;;;;0.40;0.20;;;22.80;47.00;;;;;;6141638;28;20486;-54
2022/09/27 02:20:13;;;;;;;0.38;0.28;;;22.60;46.90;;;;;;6122865;28;20132;-55
2022/09/27 02:23:25;;;;;;;0.50;0.30;;;22.20;46.80;;;;;;6125707;28;20161;-57
2022/09/27 02:26:41;;;;;;;0.25;0.17;;;22.50;46.90;;;;;;6156678;28;20050;-56
2022/09/27 02:29:49;;;;;;;0.40;0.20;;;22.60;47.00;;;;;;6152654;28;20325;-56
2022/09/27 02:32:52;;;;;;;0.50;0.20;;;22.30;46.80;;;;;;6136881;28;20050;-59
2022/09/27 02:35:55;;;;;;;0.47;0.13;;;22.10;46.70;;;;;;6169526;28;20053;-59
2022/09/27 02:38:56;;;;;;;0.30;0.10;;;22.40;46.90;;;;;;6170576;28;20057;-59
2022/09/27 02:41:58;;;;;;;0.10;0.10;;;22.70;47.10;;;;;;6154716;28;20041;-59
2022/09/27 02:45:01;;;;;;;0.10;0.10;;;22.50;47.00;;;;;;6166899;28;20046;-59
2022/09/27 02:48:14;;;;;;;0.22;0.13;;;22.30;46.90;;;;;;6156007;28;20046;-59
2022/09/27 02:51:31;;;;;;;0.20;0.20;;;22.40;46.90;;;;;;6162983;28;20811;-57
2022/09/27 02:54:40;;;;;;;0.40;0.20;;;22.70;47.20;;;;;;6156744;28;20295;-58
2022/09/27 02:58:13;;;;;;;0.40;0.20;;;22.70;47.20;;;;;;6145322;28;20056;-58
2022/09/27 03:01:44;;;;;;;0.73;0.38;;;22.70;47.20;;;;;;6159668;28;20755;-58
2022/09/27 03:05:02;;;;;;;0.53;0.20;;;22.70;47.20;;;;;;6157541;28;20406;-58
2022/09/27 03:08:06;;;;;;;0.20;0.20;;;22.50;47.10;;;;;;6141283;28;20054;-58
2022/09/27 03:11:08;;;;;;;0.52;0.20;;;22.60;47.20;;;;;;6142923;28;20865;-57
2022/09/27 03:14:09;;;;;;;0.40;0.20;;;22.50;47.20;;;;;;6157669;28;20510;-57
2022/09/27 03:17:18;;;;;;;0.50;0.20;;;22.50;47.20;;;;;;6160531;28;20058;-58
2022/09/27 03:20:39;;;;;;;0.22;0.10;;;22.40;47.20;;;;;;6162495;28;20610;-57
2022/09/27 03:23:45;;;;;;;0.43;0.10;;;22.20;47.10;;;;;;6160592;28;20173;-60
2022/09/27 03:26:46;;;;;;;0.35;0.10;;;22.10;47.20;;;;;;6159293;28;20048;-55
2022/09/27 03:29:48;;;;;;;0.25;0.20;;;22.00;47.10;;;;;;6160600;28;21205;-59
2022/09/27 03:32:50;;;;;;;0.30;0.20;;;22.30;47.30;;;;;;6162494;28;20042;-59
2022/09/27 03:36:11;;;;;;;0.10;0.10;;;22.90;47.60;;;;;;6165067;28;20116;-56
2022/09/27 03:39:13;;;;;;;0.20;0.20;;;22.50;47.40;;;;;;6160845;28;20057;-57
2022/09/27 03:42:15;;;;;;;0.30;0.22;;;22.10;47.20;;;;;;6164787;28;20065;-57
2022/09/27 03:45:22;;;;;;;1.10;0.30;;;22.20;47.30;;;;;;6160753;28;20542;-59
2022/09/27 03:48:24;;;;;;;0.52;0.20;;;22.60;47.60;;;;;;6153480;28;21134;-57
2022/09/27 03:51:29;;;;;;;0.65;0.30;;;22.20;47.40;;;;;;6167225;28;20045;-59
2022/09/27 03:54:32;;;;;;;0.32;0.10;;;22.50;47.50;;;;;;6167414;28;20038;-57
2022/09/27 03:57:33;;;;;;;0.32;0.10;;;22.70;47.70;;;;;;6166972;28;20530;-59
2022/09/27 04:00:40;;;;;;;0.40;0.20;;;22.30;47.40;;;;;;6170162;28;20766;-58
2022/09/27 04:03:41;;;;;;;0.32;0.25;;;22.30;47.50;;;;;;6168410;28;20065;-58
2022/09/27 04:06:58;;;;;;;0.70;0.20;;;22.60;47.70;;;;;;6165183;28;20050;-59
2022/09/27 04:10:00;;;;;;;0.28;0.17;;;22.50;47.70;;;;;;6170871;28;20337;-59
2022/09/27 04:13:03;;;;;;;0.25;0.20;;;22.50;47.70;;;;;;6169941;28;20092;-58
2022/09/27 04:16:10;;;;;;;0.30;0.20;;;22.30;47.60;;;;;;6166420;28;20056;-58
2022/09/27 04:19:31;;;;;;;;;;;22.30;47.70;;;;;;6166703;28;20137;-59
2022/09/27 04:22:42;;;;;;;0.20;0.13;;;22.40;47.80;;;;;;6163357;28;19968;-59
2022/09/27 04:25:46;;;;;;;0.20;0.20;;;22.40;47.70;;;;;;6163954;28;20137;-59
2022/09/27 04:29:08;;;;;;;0.38;0.30;;;22.40;47.70;;;;;;6162480;28;20049;-58
2022/09/27 04:32:13;;;;;;;0.20;0.20;;;22.40;47.80;;;;;;6158748;28;20244;-58
2022/09/27 04:38:48;;;;;;;0.30;0.20;;;22.40;47.90;;;;;;6162916;28;20049;-58
2022/09/27 04:41:55;;;;;;;0.30;0.20;;;22.10;47.70;;;;;;6148376;28;20065;-59
2022/09/27 04:44:57;;;;;;;0.30;0.20;;;22.30;47.90;;;;;;6165168;28;20058;-59
2022/09/27 04:47:59;;;;;;;0.30;0.10;;;22.00;47.80;;;;;;6162825;28;20178;-59
2022/09/27 04:51:02;;;;;;;0.55;0.20;;;22.30;47.90;;;;;;6165524;28;20038;-59
2022/09/27 04:54:04;;;;;;;0.55;0.20;;;22.10;47.90;;;;;;6163031;28;20127;-56
2022/09/27 04:57:11;;;;;;;0.38;0.20;;;22.40;48.00;;;;;;6157274;28;20050;-59
2022/09/27 05:00:17;;;;;;;0.60;0.20;;;22.30;48.00;;;;;;6159288;28;20061;-59
2022/09/27 05:03:23;;;;;;;0.52;0.20;;;22.20;47.90;;;;;;6128741;28;20860;-59
2022/09/27 05:06:31;;;;;;;0.20;0.20;;;22.20;48.00;;;;;;6157708;28;20140;-58
2022/09/27 05:09:39;;;;;;;0.45;0.20;;;22.10;48.00;;;;;;6152975;28;20080;-58
2022/09/27 05:12:42;;;;;;;0.05;0.05;;;22.00;48.00;;;;;;6159820;28;20054;-59
2022/09/27 05:15:48;;;;;;;0.52;0.20;;;22.20;48.00;;;;;;6161896;28;20911;-59
2022/09/27 05:19:09;;;;;;;0.52;0.20;;;22.40;48.20;;;;;;6156562;28;20045;-57
2022/09/27 05:22:31;;;;;;;0.20;0.20;;;22.00;48.00;;;;;;6158695;28;20168;-58
2022/09/27 05:25:33;;;;;;;1.15;0.20;;;22.40;48.30;;;;;;6158298;28;20085;-59
2022/09/27 05:28:35;;;;;;;0.38;0.10;;;22.20;48.10;;;;;;6160297;28;20053;-59
2022/09/27 05:31:37;;;;;;;0.30;0.10;;;22.30;48.20;;;;;;6152568;28;20946;-58
2022/09/27 05:34:39;;;;;;;0.20;0.17;;;22.10;48.10;;;;;;6159458;28;20897;-58
2022/09/27 05:37:40;;;;;;;0.32;0.20;;;22.10;48.10;;;;;;6152356;28;20042;-59
2022/09/27 05:40:45;;;;;;;0.75;0.30;;;22.10;48.10;;;;;;6150698;28;20042;-59
2022/09/27 05:43:48;;;;;;;0.57;0.30;;;22.50;48.30;;;;;;6144307;28;20101;-59
2022/09/27 05:46:49;;;;;;;0.68;0.25;;;22.10;48.10;;;;;;6143326;28;20050;-59
2022/09/27 05:49:52;;;;;;;0.65;0.38;;;22.30;48.30;;;;;;6142017;28;20050;-60
2022/09/27 05:52:58;;;;;;;0.20;0.10;;;22.20;48.20;;;;;;6146166;28;20062;-59
2022/09/27 05:56:01;;;;;;;0.25;0.10;;;22.20;48.10;;;;;;6142999;28;20041;-59
2022/09/27 05:59:11;;;;;;;0.50;0.22;;;22.20;48.10;;;;;;6150179;28;20961;-60
2022/09/27 06:02:34;;;;;;;0.50;0.20;;;22.50;48.30;;;;;;6136746;28;20176;-59
2022/09/27 06:05:51;;;;;;;0.45;0.30;;;22.30;48.40;;;;;;6128942;28;20391;-59
2022/09/27 06:09:11;;;;;;;0.30;0.20;;;22.20;48.20;;;;;;6131450;28;20112;-59
2022/09/27 06:12:13;;;;;;;0.80;0.30;;;22.20;48.30;;;;;;6116117;28;20065;-59
2022/09/27 06:15:16;;;;;;;0.40;0.20;;;22.20;48.30;;;;;;6123389;28;20045;-58
2022/09/27 06:18:19;;;;;;;0.40;0.20;;;21.90;48.10;;;;;;6131197;28;20056;-58
2022/09/27 06:21:24;;;;;;;0.85;0.30;;;22.30;63.30;;;;;;6105632;28;20074;-61
2022/09/27 06:24:29;;;;;;;1.48;0.20;;;22.20;48.30;;;;;;6096695;28;20041;-59
2022/09/27 06:27:40;;;;;;;1.00;0.10;;;22.30;48.40;;;;;;6121786;28;21208;-59
2022/09/27 06:30:52;;;;;;;0.57;0.22;;;22.10;48.30;;;;;;6115974;28;20045;-59
2022/09/27 06:34:11;;;;;;;1.25;0.30;;;22.40;48.40;;;;;;6094459;28;20054;-60
2022/09/27 06:37:14;;;;;;;1.70;0.80;;;22.30;48.50;;;;;;6073966;28;20188;-59
2022/09/27 06:40:16;;;;;;;1.17;0.10;;;22.20;48.30;;;;;;6062143;28;21013;-57
2022/09/27 06:43:32;;;;;;;1.05;0.20;;;22.40;48.50;;;;;;6072242;28;20053;-59
2022/09/27 06:46:48;;;;;;;0.20;0.20;;;22.40;48.70;;;;;;6039569;28;20054;-59
2022/09/27 06:50:05;;;;;;;0.65;0.25;;;22.10;48.30;;;;;;6014318;28;20048;-59
2022/09/27 06:53:09;;;;;;;0.35;0.22;;;22.30;48.40;;;;;;6021919;28;20060;-58
2022/09/27 06:56:11;;;;;;;0.45;0.30;;;22.60;48.50;;;;;;6039258;28;20185;-59
2022/09/27 07:03:00;;;;;;;0.95;0.28;;;22.40;48.50;;;;;;5991176;28;20094;-59
2022/09/27 07:06:22;;;;;;;0.90;0.28;;;22.60;48.60;;;;;;5940237;28;20141;-55
2022/09/27 07:09:32;;;;;;;2.20;0.47;;;22.70;48.60;;;;;;5841971;28;20059;-57
2022/09/27 07:12:35;;;;;;;2.67;0.40;;;22.80;48.70;;;;;;5823506;28;20146;-62
2022/09/27 07:15:40;;;;;;;0.63;0.10;;;22.40;48.70;;;;;;5768976;28;20047;-59
2022/09/27 07:18:49;;;;;;;2.22;0.32;;;22.80;48.40;;;;;;5767363;28;20048;-55
2022/09/27 07:21:51;;;;;;;2.60;0.13;;;22.70;48.30;;;;;;5816356;28;20079;-58
2022/09/27 07:24:53;;;;;;;1.52;0.40;;;22.70;48.30;;;;;;5792788;28;20054;-56
2022/09/27 07:28:01;;;;;;;2.53;0.40;;;22.50;48.10;;;;;;5811867;28;20769;-57
2022/09/27 07:31:04;;;;;;;0.98;0.30;;;22.70;48.20;;;;;;5775717;28;26839;-58
2022/09/27 07:34:07;;;;;;;0.40;0.20;;;22.60;48.00;;;;;;5757639;28;20182;-59
2022/09/27 07:37:09;;;;;;;0.70;0.25;;;22.60;48.00;;;;;;5741108;28;20048;-59
2022/09/27 07:40:14;;;;;;;0.60;0.30;;;22.40;47.90;;;;;;5753111;28;30951;-58
2022/09/27 07:43:16;;;;;;;0.70;0.47;;;22.40;47.80;;;;;;5751516;28;30842;-58
2022/09/27 07:46:19;;;;;;;0.93;0.38;;;22.60;47.90;;;;;;5763997;28;20451;-57
2022/09/27 07:49:26;;;;;;;0.50;0.30;;;22.80;47.90;;;;;;5775009;28;20159;-59
2022/09/27 07:52:40;;;;;;;0.50;0.20;;;22.80;47.80;;;;;;5796494;28;20062;-58
2022/09/27 07:56:02;;;;;;;0.35;0.22;;;23.30;48.00;;;;;;5784912;28;20059;-59
2022/09/27 07:59:06;;;;;;;0.32;0.30;;;23.00;47.80;;;;;;5754705;28;33091;-59
2022/09/27 08:02:14;;;;;;;0.73;0.30;;;22.90;47.70;;;;;;5765941;28;20059;-58
2022/09/27 08:05:18;;;;;;;0.73;0.30;;;22.80;47.50;;;;;;5770012;28;20058;-58
2022/09/27 08:08:23;;;;;;;0.73;0.30;;;22.50;47.30;;;;;;5782503;28;21631;-59
2022/09/27 08:11:26;;;;;;;0.38;0.20;;;23.00;47.50;;;;;;5788139;28;20043;-59
2022/09/27 08:14:28;;;;;;;0.85;0.43;;;22.50;47.20;;;;;;5811210;28;20062;-60
2022/09/27 08:17:31;;;;;;;0.45;0.30;;;22.60;47.30;;;;;;5825253;28;20872;-60
2022/09/27 08:20:55;;;;;;;0.73;0.32;;;22.90;47.40;;;;;;5839418;28;20051;-59
2022/09/27 08:24:03;;;;;;;0.50;0.22;;;23.00;47.50;;;;;;5866845;28;20097;-59
2022/09/27 08:27:24;;;;;;;1.70;0.20;;;23.10;47.60;;;;;;5838481;28;20047;-60
2022/09/27 08:30:31;;;;;;;0.60;0.22;;;22.80;47.30;;;;;;5837725;28;20154;-60
2022/09/27 08:33:34;;;;;;;0.47;0.35;;;23.20;47.50;;;;;;5819836;28;20055;-60
2022/09/27 08:36:43;;;;;;;0.30;0.20;;;23.00;47.40;;;;;;5797026;28;20041;-60
2022/09/27 08:39:45;;;;;;;1.50;0.30;;;23.00;47.30;;;;;;5748077;28;20046;-60
2022/09/27 08:43:00;;;;;;;0.68;0.30;;;22.80;47.20;;;;;;5823990;28;20054;-58
2022/09/27 08:46:14;;;;;;;0.22;0.20;;;23.20;47.40;;;;;;5809355;28;20050;-58
2022/09/27 08:49:20;;;;;;;0.90;0.40;;;23.20;60.50;;;;;;5835029;28;20051;-58
2022/09/27 08:52:27;;;;;;;0.82;0.45;;;23.20;47.30;;;;;;5832659;28;20043;-59
2022/09/27 08:55:36;;;;;;;0.70;0.30;;;23.20;47.30;;;;;;5810981;28;20055;-59
2022/09/27 08:58:45;;;;;;;0.90;0.30;;;23.20;47.30;;;;;;5808925;28;20169;-58
2022/09/27 09:01:55;;;;;;;0.40;0.30;;;23.10;47.20;;;;;;5785330;28;24360;-57
2022/09/27 09:05:10;;;;;;;0.22;0.20;;;23.10;47.20;;;;;;5802177;28;21548;-58
2022/09/27 09:08:33;;;;;;;0.30;0.20;;;23.20;47.10;;;;;;5821435;28;20046;-59
2022/09/27 09:15:18;;;;;;;0.82;0.30;;;23.30;46.90;;;;;;5779962;28;21710;-58
2022/09/27 09:18:33;;;;;;;0.73;0.25;;;23.30;46.90;;;;;;5779560;28;21480;-59
2022/09/27 09:21:53;;;;;;;0.88;0.20;;;23.30;46.90;;;;;;5843706;28;20043;-59
2022/09/27 09:25:14;;;;;;;0.63;0.35;;;23.30;46.90;;;;;;5847196;28;20181;-59
2022/09/27 09:28:33;;;;;;;0.55;0.30;;;23.10;46.70;;;;;;5864672;28;20158;-60
2022/09/27 09:31:42;;;;;;;0.70;0.38;;;23.30;46.60;;;;;;5828761;28;20049;-58
2022/09/27 09:34:48;;;;;;;0.98;0.30;;;23.30;46.60;;;;;;5844224;28;20142;-59
2022/09/27 09:37:55;;;;;;;0.30;0.20;;;23.20;47.20;;;;;;5845240;28;20081;-59
2022/09/27 09:41:02;;;;;;;1.00;0.22;;;23.20;46.40;;;;;;5857078;28;21566;-57
2022/09/27 09:44:15;;;;;;;0.75;0.50;;;22.90;46.20;;;;;;5861998;28;20059;-60
2022/09/27 09:47:27;;;;;;;0.75;0.38;;;23.40;46.30;;;;;;5808975;28;22186;-59
2022/09/27 09:50:34;;;;;;;1.00;0.43;;;23.30;46.30;;;;;;5822344;28;20055;-59
2022/09/27 09:53:41;;;;;;;0.90;0.40;;;23.20;46.10;;;;;;5831344;28;21278;-58
2022/09/27 09:56:48;;;;;;;1.30;0.40;;;23.30;45.90;;;;;;5827159;28;20094;-58
2022/09/27 09:59:57;;;;;;;0.57;0.20;;;23.30;45.80;;;;;;5849442;28;20173;-59
2022/09/27 10:03:00;;;;;;;1.00;0.40;;;23.30;45.60;;;;;;5803645;28;20755;-58
2022/09/27 10:06:02;;;;;;;1.55;0.50;;;23.30;45.40;;;;;;5842809;28;20054;-58
2022/09/27 10:09:04;;;;;;;1.42;0.50;;;23.30;45.30;;;;;;5830965;28;20050;-58
2022/09/27 10:12:17;;;;;;;0.80;0.40;;;23.30;45.30;;;;;;5859639;28;20039;-58
2022/09/27 10:15:24;;;;;;;0.70;0.30;;;23.00;45.00;;;;;;5859177;28;20054;-59
2022/09/27 10:18:27;;;;;;;1.08;0.32;;;23.20;44.90;;;;;;5846425;28;20124;-57
2022/09/27 10:21:33;;;;;;;1.67;0.63;;;23.40;44.90;;;;;;5867755;28;20696;-59
2022/09/27 10:24:53;;;;;;;1.25;0.30;;;23.50;44.70;;;;;;5837190;28;21993;-58
2022/09/27 10:28:26;;;;;;;1.63;0.77;;;23.30;44.30;;;;;;5844879;28;21842;-56
2022/09/27 10:31:35;;;;;;;2.03;0.43;;;23.40;44.20;;;;;;5841403;28;20049;-58
2022/09/27 10:34:45;;;;;;;1.30;0.60;;;23.30;43.90;;;;;;5849439;28;20054;-57
2022/09/27 10:37:48;;;;;;;0.68;0.30;;;23.40;43.90;;;;;;5905207;28;28098;-59
2022/09/27 10:40:51;;;;;;;1.08;0.60;;;23.30;43.70;;;;;;5937871;28;20051;-53
2022/09/27 10:43:54;;;;;;;8.25;2.40;;;23.30;43.50;;;;;;5961494;28;22321;-57
2022/09/27 10:47:07;;;;;;;7.57;1.95;;;23.30;43.30;;;;;;5952387;28;20089;-59
2022/09/27 10:50:25;;;;;;;8.27;2.10;;;23.10;43.10;;;;;;5965853;28;20066;-56
2022/09/27 10:53:59;;;;;;;10.57;2.17;;;23.40;43.00;;;;;;5985826;28;22711;-57
2022/09/27 10:57:15;;;;;;;13.80;3.45;;;23.40;43.00;;;;;;5990338;28;20050;-56
2022/09/27 11:00:23;;;;;;;10.10;2.95;;;23.20;42.90;;;;;;6004161;28;20086;-57
2022/09/27 11:03:27;;;;;;;8.63;2.75;;;23.20;42.90;;;;;;5990267;28;21592;-59
2022/09/27 11:06:36;;;;;;;12.35;3.38;;;23.10;43.00;;;;;;5998326;28;21240;-58
2022/09/27 11:09:49;;;;;;;11.02;2.63;;;23.00;43.00;;;;;;5993460;28;20050;-58
2022/09/27 11:13:05;;;;;;;6.95;2.05;;;23.00;43.20;;;;;;5985965;28;20197;-58
2022/09/27 11:16:22;;;;;;;8.82;2.05;;;23.10;43.30;;;;;;5973520;28;20091;-58
2022/09/27 11:19:40;;;;;;;11.82;2.70;;;23.00;43.40;;;;;;5993796;28;20059;-58
2022/09/27 11:23:03;;;;;;;9.55;2.60;;;22.90;43.40;;;;;;5997500;28;20186;-57
2022/09/27 11:26:23;;;;;;;8.93;2.60;;;22.80;43.40;;;;;;5983916;28;20051;-58
2022/09/27 11:29:34;;;;;;;6.18;1.75;;;23.00;43.50;;;;;;5988639;28;20051;-59
2022/09/27 11:33:11;;;;;;;3.83;1.30;;;23.00;43.60;;;;;;5959824;28;20058;-61
2022/09/27 11:46:16;;;;;;;1.60;0.70;;;23.20;43.60;;;;;;6049980;28;23025;-57
2022/09/27 11:49:52;;;;;;;1.35;0.60;;;22.80;43.60;;;;;;5886622;28;21228;-58
2022/09/27 11:53:12;;;;;;;1.10;0.60;;;23.00;43.80;;;;;;5837115;28;20668;-59
2022/09/27 11:56:33;;;;;;;2.10;0.88;;;23.00;43.80;;;;;;5874755;28;20059;-60
2022/09/27 11:59:54;;;;;;;1.20;0.68;;;23.20;43.90;;;;;;5894207;28;20043;-60
2022/09/27 12:03:12;;;;;;;2.50;0.70;;;23.20;44.00;;;;;;5885601;28;20189;-59
2022/09/27 12:06:20;;;;;;;3.92;1.00;;;23.30;44.10;;;;;;5885575;28;20185;-59
2022/09/27 12:09:29;;;;;;;4.43;1.48;;;22.80;43.90;;;;;;5888697;28;20051;-60
2022/09/27 12:12:35;;;;;;;5.18;1.30;;;23.20;44.20;;;;;;5879425;28;20054;-60
2022/09/27 12:15:41;;;;;;;2.08;0.80;;;23.50;44.40;;;;;;5887018;28;20170;-60
2022/09/27 12:18:47;;;;;;;2.55;1.17;;;23.30;44.30;;;;;;5864472;28;21705;-61
2022/09/27 12:22:14;;;;;;;3.05;1.08;;;23.20;44.30;;;;;;5902741;28;20170;-60
2022/09/27 12:25:19;;;;;;;;;;;23.40;44.40;;;;;;5909239;28;20055;-59
2022/09/27 12:28:40;;;;;;;2.40;0.60;;;23.30;44.40;;;;;;5908885;28;19930;-61
2022/09/27 12:31:50;;;;;;;0.88;0.47;;;23.30;44.40;;;;;;5906494;28;20141;-58
2022/09/27 12:34:59;;;;;;;1.13;0.60;;;23.20;44.50;;;;;;5907040;28;20054;-59
2022/09/27 12:38:05;;;;;;;1.98;0.50;;;23.30;44.60;;;;;;5852055;28;20045;-60
2022/09/27 12:41:13;;;;;;;1.40;0.60;;;23.20;44.60;;;;;;5836325;28;20059;-59
2022/09/27 12:44:31;;;;;;;1.60;0.60;;;23.20;44.80;;;;;;5917498;28;21961;-61
2022/09/27 12:47:46;;;;;;;1.77;0.50;;;23.40;45.00;;;;;;5891843;28;23348;-61
2022/09/27 12:50:57;;;;;;;3.33;0.50;;;22.70;44.80;;;;;;5923098;28;20133;-59
2022/09/27 12:54:26;;;;;;;1.05;0.40;;;23.30;45.40;;;;;;5934909;28;20062;-58
2022/09/27 12:57:42;;;;;;;1.00;0.40;;;23.30;46.10;;;;;;5915993;28;20054;-61
2022/09/27 13:00:54;;;;;;;0.80;0.47;;;23.20;45.50;;;;;;5887808;28;20051;-62
2022/09/27 13:04:16;;;;;;;0.75;0.38;;;23.30;45.70;;;;;;5854572;28;20058;-59
2022/09/27 13:07:29;;;;;;;1.55;0.60;;;23.10;45.90;;;;;;5844413;28;20050;-61
2022/09/27 13:10:44;;;;;;;1.33;0.40;;;23.30;46.20;;;;;;5877540;28;20058;-61
2022/09/27 13:14:00;;;;;;;2.17;0.40;;;23.30;46.20;;;;;;5875404;28;20084;-60
2022/09/27 13:17:01;;;;;;;1.95;0.43;;;23.30;46.30;;;;;;5887405;28;20043;-61
2022/09/27 13:20:34;;;;;;;2.33;0.40;;;23.40;46.60;;;;;;5872863;28;20047;-61
2022/09/27 13:23:51;;;;;;;2.88;0.40;;;23.30;46.70;;;;;;5888614;28;20059;-61
2022/09/27 13:26:54;;;;;;;0.73;0.30;;;23.20;46.60;;;;;;5890857;28;21669;-61
2022/09/27 13:30:34;;;;;;;0.95;0.40;;;23.30;46.60;;;;;;5892398;28;20055;-61
2022/09/27 13:33:45;;;;;;;1.35;0.47;;;23.20;46.60;;;;;;5863892;28;21613;-62
2022/09/27 13:36:51;;;;;;;1.58;0.50;;;23.20;46.60;;;;;;5878161;28;20169;-60
2022/09/27 13:40:10;;;;;;;0.70;0.43;;;23.30;46.70;;;;;;5840760;28;20047;-61
2022/09/27 13:43:46;;;;;;;1.40;0.30;;;23.20;46.80;;;;;;5889131;28;21382;-62
2022/09/27 13:47:03;;;;;;;0.68;0.32;;;23.50;47.10;;;;;;5854098;28;20047;-59
2022/09/27 13:50:23;;;;;;;0.47;0.25;;;23.60;47.20;;;;;;5859269;28;21420;-61
2022/09/27 13:53:34;;;;;;;1.02;0.40;;;23.30;47.30;;;;;;5828359;28;20054;-63
2022/09/27 13:56:51;;;;;;;0.55;0.32;;;23.40;47.50;;;;;;5862654;28;20059;-61
2022/09/27 13:59:59;;;;;;;0.85;0.32;;;23.10;47.80;;;;;;5850949;28;20150;-62
2022/09/27 14:06:55;;;;;;;0.90;0.40;;;23.30;48.20;;;;;;5772932;28;20585;-61
2022/09/27 14:09:59;;;;;;;0.60;0.30;;;23.40;48.30;;;;;;5764068;28;31036;-61
2022/09/27 14:13:04;;;;;;;0.63;0.35;;;23.30;48.50;;;;;;5789960;28;27074;-61
2022/09/27 14:16:15;;;;;;;1.77;0.43;;;23.10;48.50;;;;;;5791573;28;26491;-61
2022/09/27 14:19:20;;;;;;;0.40;0.30;;;23.40;48.70;;;;;;5855085;28;20054;-60
2022/09/27 14:22:23;;;;;;;1.17;0.30;;;23.20;48.70;;;;;;5824654;28;29204;-60
2022/09/27 14:25:46;;;;;;;1.10;0.40;;;23.30;48.90;;;;;;5824328;28;28814;-60
2022/09/27 14:28:47;;;;;;;0.68;0.35;;;23.30;49.10;;;;;;5819771;28;21441;-61
2022/09/27 14:32:11;;;;;;;0.70;0.22;;;23.30;49.10;;;;;;5842365;28;20544;-59
2022/09/27 14:38:53;;;;;;;0.60;0.45;;;23.30;49.50;;;;;;5820852;28;20139;-60
2022/09/27 14:42:03;;;;;;;0.43;0.30;;;23.40;49.70;;;;;;5847662;28;20492;-60
2022/09/27 14:45:18;;;;;;;0.40;0.20;;;23.30;49.90;;;;;;5800638;28;24644;-59
2022/09/27 14:48:25;;;;;;;0.47;0.17;;;23.40;50.20;;;;;;5822962;28;22664;-59
2022/09/27 14:51:29;;;;;;;0.82;0.20;;;23.40;50.40;;;;;;5804543;28;20047;-60
2022/09/27 14:54:31;;;;;;;0.25;0.10;;;23.20;50.60;;;;;;5796063;28;24610;-58
2022/09/27 14:57:35;;;;;;;0.70;0.30;;;23.20;50.80;;;;;;5801708;28;30783;-60
2022/09/27 15:00:40;;;;;;;0.98;0.20;;;23.30;51.10;;;;;;5805662;28;20055;-59
2022/09/27 15:03:44;;;;;;;0.28;0.10;;;23.40;51.40;;;;;;5778064;28;30752;-59
2022/09/27 15:06:46;;;;;;;1.58;0.20;;;23.30;51.60;;;;;;5764711;28;20051;-58
2022/09/27 15:09:50;;;;;;;0.77;0.22;;;23.40;51.90;;;;;;5811284;28;20145;-60
2022/09/27 15:12:57;;;;;;;0.75;0.47;;;23.50;52.20;;;;;;5804471;28;20067;-58
2022/09/27 15:16:00;;;;;;;0.50;0.17;;;23.60;52.50;;;;;;5832260;28;20799;-60
2022/09/27 15:19:12;;;;;;;0.20;0.10;;;23.50;52.70;;;;;;5810159;28;21155;-60
2022/09/27 15:22:22;;;;;;;0.47;0.17;;;23.40;53.10;;;;;;5789899;28;25559;-60
2022/09/27 15:25:33;;;;;;;1.40;0.30;;;23.70;53.60;;;;;;5803061;28;30666;-60
2022/09/27 15:28:38;;;;;;;1.02;0.20;;;23.40;54.00;;;;;;5778857;28;29620;-61
2022/09/27 15:31:39;;;;;;;0.30;0.20;;;23.60;53.80;;;;;;5782535;28;21501;-60
2022/09/27 15:34:42;;;;;;;0.82;0.40;;;23.50;53.90;;;;;;5774114;28;26734;-60
2022/09/27 15:37:45;;;;;;;0.43;0.20;;;23.70;54.40;;;;;;5831121;28;20134;-59
2022/09/27 15:41:08;;;;;;;0.57;0.20;;;23.50;54.30;;;;;;5860790;28;20039;-60
2022/09/27 15:44:35;;;;;;;1.00;0.28;;;23.70;54.80;;;;;;5855594;28;28089;-60
2022/09/27 15:47:41;;;;;;;0.40;0.25;;;23.60;54.90;;;;;;5832948;28;26730;-61
2022/09/27 15:50:43;;;;;;;0.20;0.20;;;23.30;54.70;;;;;;5857081;28;26696;-61
2022/09/27 15:53:45;;;;;;;0.73;0.32;;;23.20;55.50;;;;;;5877595;28;21972;-61
2022/09/27 15:56:48;;;;;;;0.57;0.22;;;23.40;55.20;;;;;;5895335;28;20042;-60
2022/09/27 15:59:55;;;;;;;0.77;0.20;;;23.20;55.20;;;;;;5907009;28;23304;-60
2022/09/27 16:02:57;;;;;;;0.32;0.20;;;23.40;55.50;;;;;;5919210;28;20086;-61
2022/09/27 16:06:01;;;;;;;0.52;0.20;;;23.40;55.70;;;;;;5910497;28;20051;-60
2022/09/27 16:09:04;;;;;;;0.40;0.28;;;23.30;55.90;;;;;;5918532;28;20043;-61
2022/09/27 16:12:06;;;;;;;0.45;0.30;;;23.60;56.10;;;;;;5944185;28;20043;-61
2022/09/27 16:15:08;;;;;;;0.25;0.20;;;23.40;56.10;;;;;;5993437;28;20054;-61
2022/09/27 16:18:10;;;;;;;0.20;0.17;;;23.60;56.40;;;;;;6002296;28;20053;-60
2022/09/27 16:21:12;;;;;;;0.30;0.20;;;23.70;56.70;;;;;;6000455;28;20053;-61
2022/09/27 16:24:14;;;;;;;1.10;0.20;;;23.50;56.60;;;;;;6013820;28;20097;-63
2022/09/27 16:27:22;;;;;;;0.30;0.20;;;23.60;56.90;;;;;;6021710;28;20051;-62
2022/09/27 16:30:24;;;;;;;0.20;0.10;;;23.20;56.80;;;;;;6029889;28;20054;-62
2022/09/27 16:33:27;;;;;;;0.43;0.20;;;23.20;56.80;;;;;;6022680;28;20051;-62
2022/09/27 16:36:29;;;;;;;0.25;0.20;;;23.50;57.10;;;;;;6019594;28;21061;-61
2022/09/27 16:39:30;;;;;;;0.50;0.17;;;23.40;57.10;;;;;;6037770;28;20145;-61
2022/09/27 16:42:32;;;;;;;0.30;0.20;;;23.30;57.20;;;;;;6048855;28;20065;-62
2022/09/27 16:45:35;;;;;;;0.30;0.15;;;23.40;57.30;;;;;;6050650;28;20048;-62
2022/09/27 16:48:36;;;;;;;0.30;0.20;;;23.30;57.40;;;;;;6037789;28;20165;-61
2022/09/27 16:54:54;;;;;;;0.40;0.13;;;23.70;57.70;;;;;;6035908;28;20543;-62
2022/09/27 16:57:57;;;;;;;0.10;0.10;;;23.50;57.70;;;;;;6033141;28;20050;-62